Cabery, Illinois
Current Conditions -  °F | °C
As of 6:55 PM on Wednesday 17 Dec 2014 (Local Time) from KIKK Reporting Station
Overcast Overcast  
Wind Chill: 18°   Ceiling: 2400
Heat Index: 26°   Visibility: 10mi
Dew Point: 20°   Wind: 8mph
Humidity: 78%   Direction: 270°W
Pressure: 30.29"   Gusts: NA
Location:  40.99°N, 88.2°W
Report Text: KIKK 180055Z AUTO 27007KT 10SM OVC024 M03/M06 A3029 RMK AO2 T10321065
Loading
Personal Weather Stations






























Interactive Weather Map New forecast layout! Learn more

10-Day Weather Forecast

Advertisements
Track Severe Weather on mobile